Time;durP1;ratioP1;P1;durP2;ratioP2;P2;SDS_P1;SDS_P2;PMS_P1;PMS_P2;Temp;Humidity;BMP_temperature;BMP_pressure;BME280_temperature;BME280_humidity;BME280_pressure;Samples;Min_cycle;Max_cycle;Signal;HPM_P1;HPM_P2
2023/01/01 00:00:57;;;;;;;115.75;41.78;;;;;;;1.90;100.00;102078.94;4931129;29;20087;-78
2023/01/01 00:03:22;;;;;;;135.63;41.90;;;;;;;1.93;100.00;102077.56;4931170;29;20051;-82
2023/01/01 00:05:48;;;;;;;116.93;40.55;;;;;;;1.91;100.00;102078.19;4929737;28;20036;-79
2023/01/01 00:08:13;;;;;;;126.85;41.17;;;;;;;1.90;100.00;102071.28;4931078;29;20063;-82
2023/01/01 00:10:38;;;;;;;122.38;40.83;;;;;;;1.93;100.00;102080.13;4932601;29;20054;-78
2023/01/01 00:13:04;;;;;;;92.00;39.67;;;;;;;1.64;100.00;102048.38;4932568;29;20036;-83
2023/01/01 00:15:29;;;;;;;109.75;42.53;;;;;;;1.57;100.00;102069.75;4928965;29;20447;-80
2023/01/01 00:17:56;;;;;;;119.38;41.58;;;;;;;1.71;100.00;102071.13;4931981;29;20490;-82
2023/01/01 00:20:23;;;;;;;114.07;40.38;;;;;;;1.72;100.00;102057.63;4931795;29;20031;-86
2023/01/01 00:22:49;;;;;;;86.22;39.67;;;;;;;1.86;100.00;102082.81;4930898;29;20126;-82
2023/01/01 00:25:14;;;;;;;100.43;36.35;;;;;;;1.89;100.00;102083.09;4926124;29;20131;-84
2023/01/01 00:27:41;;;;;;;72.85;34.75;;;;;;;1.87;100.00;102082.06;4929571;29;20044;-84
2023/01/01 00:30:08;;;;;;;71.80;33.50;;;;;;;1.84;100.00;102080.88;4925939;29;20494;-84
2023/01/01 00:32:33;;;;;;;64.00;30.70;;;;;;;1.85;100.00;102095.41;4912705;29;20138;-80
2023/01/01 00:34:59;;;;;;;53.30;27.60;;;;;;;1.76;100.00;102093.75;4927448;29;20052;-77
2023/01/01 00:37:24;;;;;;;52.70;26.98;;;;;;;1.68;100.00;102097.16;4928677;29;20167;-80
2023/01/01 00:39:49;;;;;;;54.45;25.08;;;;;;;1.64;100.00;102109.47;4913936;29;20043;-83
2023/01/01 00:42:15;;;;;;;47.20;25.05;;;;;;;1.29;100.00;102060.28;4928357;29;20546;-81
2023/01/01 00:44:40;;;;;;;46.85;25.02;;;;;;;1.54;100.00;102105.97;4928961;29;20047;-79
2023/01/01 00:47:06;;;;;;;44.38;23.73;;;;;;;1.37;100.00;102088.13;4929217;29;20036;-87
2023/01/01 00:49:32;;;;;;;38.50;22.52;;;;;;;1.32;100.00;102085.16;4927317;29;20055;-84
2023/01/01 00:51:57;;;;;;;43.13;23.70;;;;;;;1.34;100.00;102106.53;4891316;29;20049;-90
2023/01/01 00:54:23;;;;;;;43.55;20.98;;;;;;;1.35;100.00;102105.81;4876097;29;20096;-79
2023/01/01 00:56:48;;;;;;;38.85;21.00;;;;;;;1.34;100.00;102100.56;4889948;29;20474;-79
2023/01/01 00:59:13;;;;;;;37.47;22.80;;;;;;;1.30;100.00;102109.53;4876187;29;20024;-77
2023/01/01 01:01:39;;;;;;;39.60;21.52;;;;;;;1.37;100.00;102099.22;4876708;29;20056;-78
2023/01/01 01:04:06;;;;;;;42.75;21.48;;;;;;;1.42;100.00;102100.59;4892080;29;20411;-73
2023/01/01 01:06:31;;;;;;;55.23;21.27;;;;;;;1.37;100.00;102096.69;4892203;29;20100;-76
2023/01/01 01:08:58;;;;;;;49.83;22.90;;;;;;;0.81;100.00;102006.31;4876629;29;20594;-74
2023/01/01 01:11:24;;;;;;;53.37;22.50;;;;;;;1.45;100.00;102103.41;4892298;29;20724;-81
2023/01/01 01:13:52;;;;;;;48.10;21.75;;;;;;;1.52;100.00;102112.59;4892202;29;20517;-77
2023/01/01 01:16:27;;;;;;;48.90;23.02;;;;;;;1.63;100.00;102110.22;4876619;29;20055;-78
2023/01/01 01:18:54;;;;;;;49.77;22.47;;;;;;;1.68;100.00;102102.25;4876532;29;20040;-75
2023/01/01 01:21:22;;;;;;;46.17;22.77;;;;;;;1.57;100.00;102085.94;4890030;29;20625;-77
2023/01/01 01:23:49;;;;;;;48.72;22.52;;;;;;;1.72;100.00;102088.19;4924014;28;20047;-77
2023/01/01 01:26:17;;;;;;;68.53;23.42;;;;;;;1.77;100.00;102085.34;4932555;29;20035;-78
2023/01/01 01:28:46;;;;;;;66.60;20.85;;;;;;;1.82;100.00;102084.91;4932439;29;20102;-79
2023/01/01 01:31:12;;;;;;;89.85;22.13;;;;;;;1.91;100.00;102085.81;4925396;29;20028;-75
2023/01/01 01:33:37;;;;;;;100.05;22.90;;;;;;;1.97;100.00;102088.06;4940804;28;20562;-75
2023/01/01 01:36:05;;;;;;;59.22;20.70;;;;;;;1.88;100.00;102076.22;4932055;29;20031;-76
2023/01/01 01:38:31;;;;;;;80.43;21.50;;;;;;;1.94;100.00;102087.03;4933193;29;20063;-76
2023/01/01 01:40:57;;;;;;;71.45;21.73;;;;;;;1.88;100.00;102070.22;4930233;28;20126;-76
2023/01/01 01:43:49;;;;;;;61.25;22.15;;;;;;;1.94;100.00;102086.09;4935855;29;20459;-76
2023/01/01 01:46:20;;;;;;;118.05;22.67;;;;;;;1.76;100.00;102053.00;4934171;29;20024;-76
2023/01/01 01:48:48;;;;;;;87.18;21.55;;;;;;;2.00;100.00;102096.00;4935935;29;20119;-78
2023/01/01 01:51:21;;;;;;;114.25;22.17;;;;;;;1.96;100.00;102084.63;4935643;29;20031;-79
2023/01/01 01:53:51;;;;;;;77.35;19.08;;;;;;;2.00;100.00;102084.16;4933942;28;20032;-79
2023/01/01 01:56:22;;;;;;;66.88;20.23;;;;;;;1.96;100.00;102076.97;4934217;29;20020;-77
2023/01/01 01:58:48;;;;;;;60.25;20.40;;;;;;;2.03;100.00;102091.19;4933761;29;20483;-78
2023/01/01 02:01:14;;;;;;;114.05;23.20;;;;;;;1.91;100.00;102073.09;4933465;29;20035;-77
2023/01/01 02:03:56;;;;;;;107.65;21.88;;;;;;;1.97;100.00;102095.69;4934453;29;20036;-77
2023/01/01 02:06:23;;;;;;;79.97;21.90;;;;;;;1.74;100.00;102096.88;4934263;29;20570;-77
2023/01/01 02:08:49;;;;;;;111.68;30.25;;;;;;;1.37;100.00;102106.88;4935448;29;20046;-78
2023/01/01 02:11:15;;;;;;;122.47;30.37;;;;;;;1.10;100.00;102093.16;4935305;29;20035;-77
2023/01/01 02:13:41;;;;;;;140.33;30.27;;;;;;;1.01;100.00;102088.78;4935397;29;20028;-76
2023/01/01 02:16:33;;;;;;;133.23;30.70;;;;;;;1.03;100.00;102093.25;4933766;29;20119;-77
2023/01/01 02:19:07;;;;;;;108.47;27.33;;;;;;;1.00;100.00;102098.06;4930253;29;20047;-77
2023/01/01 02:21:41;;;;;;;114.57;27.40;;;;;;;0.68;100.00;102064.25;4933931;29;20032;-76
2023/01/01 02:24:27;;;;;;;131.30;29.27;;;;;;;0.87;100.00;102097.53;4933877;29;20028;-77
2023/01/01 02:27:24;;;;;;;113.67;27.80;;;;;;;0.64;100.00;102106.25;4876029;29;20140;-77
2023/01/01 02:30:04;;;;;;;82.37;24.97;;;;;;;0.61;100.00;102088.13;4838829;29;20046;-77
2023/01/01 02:32:47;;;;;;;;;;;;;;;0.60;100.00;102101.59;4823262;29;20058;-75
2023/01/01 02:35:34;;;;;;;103.87;25.17;;;;;;;0.60;100.00;102094.00;4838675;29;19920;-77
2023/01/01 02:38:15;;;;;;;196.57;25.53;;;;;;;0.64;100.00;102103.72;4839879;29;20072;-76
2023/01/01 02:40:46;;;;;;;202.50;25.27;;;;;;;0.72;100.00;102107.94;4823829;29;20042;-76
2023/01/01 02:43:12;;;;;;;158.63;24.50;;;;;;;0.83;100.00;102106.50;4823475;29;20162;-77
2023/01/01 02:45:37;;;;;;;167.90;27.37;;;;;;;0.68;100.00;102065.16;4823908;29;20145;-77
2023/01/01 02:48:27;;;;;;;192.43;25.83;;;;;;;0.92;100.00;102110.00;4837834;29;20571;-78
2023/01/01 02:50:54;;;;;;;159.85;25.55;;;;;;;0.79;100.00;102104.38;4838923;29;20046;-76
2023/01/01 02:53:38;;;;;;;184.60;27.30;;;;;;;0.75;100.00;102087.03;4823473;29;20612;-77
2023/01/01 02:56:27;;;;;;;199.53;27.67;;;;;;;0.79;100.00;102114.56;4857237;29;20444;-77
2023/01/01 03:02:33;;;;;;;166.60;24.47;;;;;;;0.80;100.00;102086.75;4820772;29;20095;-77
2023/01/01 03:05:19;;;;;;;126.00;24.57;;;;;;;1.01;100.00;102097.31;4842467;29;20074;-77
2023/01/01 03:08:08;;;;;;;115.60;22.50;;;;;;;1.14;100.00;102094.38;4820775;29;20494;-76
2023/01/01 03:11:11;;;;;;;125.53;22.13;;;;;;;1.36;100.00;102096.50;4838724;29;20045;-78
2023/01/01 03:14:12;;;;;;;103.07;21.87;;;;;;;1.47;100.00;102103.59;4784131;29;20048;-77
2023/01/01 03:16:44;;;;;;;100.88;21.90;;;;;;;1.41;100.00;102092.81;4769422;29;20043;-76
2023/01/01 03:19:17;;;;;;;144.13;23.25;;;;;;;1.42;100.00;102100.59;4784407;29;20219;-75
2023/01/01 03:22:02;;;;;;;43.15;20.08;;;;;;;1.26;100.00;102064.19;4784186;29;20035;-75
2023/01/01 03:24:44;;;;;;;49.30;20.00;;;;;;;1.22;100.00;102103.69;4784006;29;20036;-75
2023/01/01 03:27:26;;;;;;;59.03;21.90;;;;;;;1.03;100.00;102090.72;4784355;29;20092;-76
2023/01/01 03:29:55;;;;;;;118.28;25.70;;;;;;;1.15;100.00;102086.00;4769146;30;20051;-75
2023/01/01 03:32:59;;;;;;;127.53;25.30;;;;;;;1.20;100.00;102058.47;4768858;30;20507;-75
2023/01/01 03:35:18;;;;;;;155.07;25.70;;;;;;;1.52;100.00;102093.84;4784299;29;20051;-75
2023/01/01 03:37:48;;;;;;;115.17;25.60;;;;;;;1.63;100.00;102090.72;4787050;29;20044;-75
2023/01/01 03:40:18;;;;;;;149.75;27.02;;;;;;;1.72;100.00;102088.19;4820137;29;20027;-76
2023/01/01 03:42:53;;;;;;;79.32;24.27;;;;;;;1.71;100.00;102089.84;4820104;29;20065;-75
2023/01/01 03:45:27;;;;;;;64.15;24.88;;;;;;;1.84;100.00;102093.59;4805067;29;20034;-75
2023/01/01 03:47:54;;;;;;;146.52;24.80;;;;;;;1.69;100.00;102093.88;4820298;29;20779;-75
2023/01/01 03:50:28;;;;;;;69.80;21.13;;;;;;;1.78;100.00;102089.72;4896984;29;20039;-77
2023/01/01 03:53:09;;;;;;;78.85;20.17;;;;;;;1.78;100.00;102096.44;4911311;29;20083;-75
2023/01/01 03:55:45;;;;;;;64.57;20.70;;;;;;;1.78;100.00;102098.97;4934225;29;20028;-74
2023/01/01 03:58:22;;;;;;;53.45;20.52;;;;;;;1.82;100.00;102100.19;4932657;29;20094;-74
2023/01/01 04:01:07;;;;;;;100.25;21.65;;;;;;;1.74;100.00;102110.50;4934054;29;20034;-75
2023/01/01 04:03:35;;;;;;;54.97;20.90;;;;;;;1.64;100.00;102100.16;4933288;29;20031;-77
2023/01/01 04:06:01;;;;;;;44.60;20.17;;;;;;;1.49;100.00;102085.94;4934068;29;20502;-76
2023/01/01 04:08:27;;;;;;;63.20;21.13;;;;;;;1.64;100.00;102112.91;4934418;29;20043;-77
2023/01/01 04:10:56;;;;;;;57.97;20.23;;;;;;;1.60;100.00;102108.25;4934398;29;20035;-77
2023/01/01 04:13:22;;;;;;;47.15;21.10;;;;;;;1.46;100.00;102111.97;4931683;29;20039;-76
2023/01/01 04:15:47;;;;;;;56.25;21.15;;;;;;;1.22;100.00;102113.84;4915891;29;20102;-77
2023/01/01 04:18:12;;;;;;;48.03;21.38;;;;;;;1.21;100.00;102113.69;4931667;29;20171;-76
2023/01/01 04:20:38;;;;;;;59.33;23.15;;;;;;;1.15;100.00;102105.44;4931824;29;20418;-76
2023/01/01 04:23:03;;;;;;;43.83;21.47;;;;;;;1.06;100.00;102103.75;4931634;29;20418;-76
2023/01/01 04:25:29;;;;;;;47.55;23.20;;;;;;;1.07;100.00;102104.66;4931717;29;20028;-82
2023/01/01 04:28:02;;;;;;;86.25;22.08;;;;;;;1.04;100.00;102092.53;4931404;29;20054;-81
2023/01/01 04:30:28;;;;;;;63.63;22.43;;;;;;;1.11;100.00;102120.38;4931536;29;20102;-79
2023/01/01 04:32:55;;;;;;;49.03;20.63;;;;;;;1.15;100.00;102129.25;4931012;29;20075;-79
2023/01/01 04:35:20;;;;;;;84.50;23.40;;;;;;;1.04;100.00;102112.88;4931642;29;20094;-79
2023/01/01 04:37:46;;;;;;;56.87;23.30;;;;;;;1.17;100.00;102122.63;4931404;29;20541;-80
2023/01/01 04:40:12;;;;;;;66.90;23.60;;;;;;;1.08;100.00;102131.91;4931402;29;20155;-80
2023/01/01 04:42:38;;;;;;;54.77;23.33;;;;;;;0.95;100.00;102133.19;4931433;29;20035;-78
2023/01/01 04:45:04;;;;;;;46.93;23.97;;;;;;;0.99;100.00;102134.41;4933215;29;20514;-75
2023/01/01 04:47:29;;;;;;;84.67;24.57;;;;;;;0.93;100.00;102138.84;4933800;29;20039;-75
2023/01/01 04:49:55;;;;;;;69.83;24.37;;;;;;;0.91;100.00;102137.78;4933904;29;20402;-75
2023/01/01 04:52:20;;;;;;;53.27;24.07;;;;;;;0.88;100.00;102122.22;4932561;29;20028;-76
2023/01/01 04:54:46;;;;;;;58.63;24.00;;;;;;;0.96;100.00;102141.72;4933487;29;20410;-75
2023/01/01 04:57:12;;;;;;;68.50;24.93;;;;;;;0.96;100.00;102134.09;4932234;29;20035;-75
2023/01/01 04:59:37;;;;;;;94.20;26.90;;;;;;;1.06;100.00;102141.00;4934070;29;20047;-75
2023/01/01 05:02:03;;;;;;;90.53;27.37;;;;;;;1.11;100.00;102142.41;4933824;29;20032;-75
2023/01/01 05:04:28;;;;;;;129.47;28.10;;;;;;;1.01;100.00;102107.50;4933834;29;20023;-77
2023/01/01 05:06:54;;;;;;;117.57;27.52;;;;;;;1.19;100.00;102146.59;4933797;29;20383;-78
2023/01/01 05:09:19;;;;;;;86.77;25.40;;;;;;;0.89;100.00;102145.25;4933760;29;20110;-78
2023/01/01 05:11:44;;;;;;;58.97;24.30;;;;;;;0.88;100.00;102142.56;4938099;28;20411;-78
2023/01/01 05:14:10;;;;;;;124.80;25.80;;;;;;;0.99;100.00;102151.31;4938603;29;20032;-78
2023/01/01 05:16:37;;;;;;;86.77;25.83;;;;;;;0.99;100.00;102158.94;4938568;29;20054;-78
2023/01/01 05:19:04;;;;;;;102.57;26.73;;;;;;;1.05;100.00;102157.91;4939848;29;20035;-78
2023/01/01 05:21:35;;;;;;;83.20;26.70;;;;;;;0.80;100.00;102122.34;4939940;29;20499;-78
2023/01/01 05:24:03;;;;;;;101.23;25.50;;;;;;;0.91;100.00;102159.06;4939896;29;20188;-79
2023/01/01 05:26:34;;;;;;;83.73;24.57;;;;;;;0.71;100.00;102121.41;4954612;28;20046;-78
2023/01/01 05:29:00;;;;;;;75.97;23.30;;;;;;;0.94;100.00;102161.91;4940015;29;20475;-77
2023/01/01 05:31:28;;;;;;;49.77;20.80;;;;;;;0.93;100.00;102159.19;4940116;29;20068;-78
2023/01/01 05:33:54;;;;;;;91.33;23.00;;;;;;;1.02;100.00;102156.69;4939969;29;20442;-77
2023/01/01 05:36:32;;;;;;;45.97;22.47;;;;;;;1.09;100.00;102157.47;4922670;29;20275;-77
2023/01/01 05:38:58;;;;;;;46.43;21.17;;;;;;;1.01;100.00;102148.19;4939882;29;20059;-77
2023/01/01 05:41:23;;;;;;;47.07;22.17;;;;;;;0.69;100.00;102117.78;4939867;29;20035;-77
2023/01/01 05:43:50;;;;;;;98.17;23.43;;;;;;;0.80;100.00;102129.09;4938360;29;20095;-77
2023/01/01 05:46:19;;;;;;;53.20;21.80;;;;;;;0.87;100.00;102123.84;4939864;29;20027;-78
2023/01/01 05:48:46;;;;;;;92.90;22.95;;;;;;;0.89;100.00;102132.56;4939794;29;20032;-77
2023/01/01 05:51:20;;;;;;;85.03;22.57;;;;;;;1.16;100.00;102169.19;4939777;29;20035;-78
2023/01/01 05:53:46;;;;;;;73.57;22.43;;;;;;;1.17;100.00;102165.88;4939700;29;20031;-76
2023/01/01 05:56:12;;;;;;;91.93;23.03;;;;;;;1.22;100.00;102164.75;4922307;29;20032;-76
2023/01/01 05:58:38;;;;;;;107.50;23.58;;;;;;;1.31;100.00;102169.88;4939627;29;20038;-79
2023/01/01 06:01:09;;;;;;;73.67;23.93;;;;;;;1.41;100.00;102179.34;4922701;29;20040;-77
2023/01/01 06:03:35;;;;;;;75.15;22.60;;;;;;;1.39;100.00;102174.06;4939530;29;20035;-78
2023/01/01 06:06:16;;;;;;;87.93;24.27;;;;;;;1.22;100.00;102136.75;4939688;29;20028;-77
2023/01/01 06:08:42;;;;;;;113.13;26.48;;;;;;;1.52;100.00;102180.41;4939340;29;20402;-77
2023/01/01 06:11:10;;;;;;;96.82;24.23;;;;;;;1.25;100.00;102136.16;4939214;29;20032;-79
2023/01/01 06:13:36;;;;;;;109.18;25.75;;;;;;;1.48;100.00;102174.09;4922344;29;20028;-78
2023/01/01 06:16:02;;;;;;;68.20;23.53;;;;;;;1.39;100.00;102168.09;4939556;29;20437;-78
2023/01/01 06:18:30;;;;;;;125.50;25.63;;;;;;;1.38;100.00;102173.91;4922160;29;20565;-79
2023/01/01 06:21:13;;;;;;;69.53;23.58;;;;;;;1.37;100.00;102167.94;4939639;29;20023;-78
2023/01/01 06:23:39;;;;;;;58.53;23.00;;;;;;;1.40;100.00;102175.88;4937641;29;20039;-76
2023/01/01 06:26:17;;;;;;;76.33;23.93;;;;;;;1.35;100.00;102176.16;4937804;29;20036;-78
2023/01/01 06:28:43;;;;;;;106.80;25.00;;;;;;;1.42;100.00;102178.56;4936291;29;20043;-78
2023/01/01 06:31:11;;;;;;;72.68;22.58;;;;;;;1.24;100.00;102134.34;4936174;29;20041;-79
2023/01/01 06:33:37;;;;;;;58.40;21.90;;;;;;;1.37;100.00;102167.94;4936205;29;20421;-79
2023/01/01 06:36:05;;;;;;;81.70;22.38;;;;;;;1.39;100.00;102174.06;4936094;29;20055;-79
2023/01/01 06:38:32;;;;;;;107.57;24.33;;;;;;;1.32;100.00;102175.84;4936006;29;20502;-79
2023/01/01 06:41:04;;;;;;;69.22;23.90;;;;;;;1.37;100.00;102182.28;4935818;29;20058;-78
2023/01/01 06:43:31;;;;;;;50.72;22.02;;;;;;;1.04;100.00;102148.47;4936179;29;20028;-78
2023/01/01 06:46:07;;;;;;;63.83;28.33;;;;;;;1.22;100.00;102189.25;4935960;29;20524;-78
2023/01/01 06:48:35;;;;;;;93.75;23.92;;;;;;;1.23;100.00;102188.53;4935737;29;20561;-79
2023/01/01 06:51:06;;;;;;;49.05;23.05;;;;;;;1.18;100.00;102193.13;4935926;29;20106;-78
2023/01/01 06:53:32;;;;;;;43.15;21.73;;;;;;;1.10;100.00;102194.00;4915894;29;20043;-76
2023/01/01 06:55:58;;;;;;;46.40;22.00;;;;;;;1.01;100.00;102198.13;4912544;29;20411;-78
2023/01/01 06:58:23;;;;;;;56.60;23.00;;;;;;;0.97;100.00;102202.00;4907657;29;20028;-78
2023/01/01 07:00:48;;;;;;;47.47;23.53;;;;;;;0.86;100.00;102184.72;4918503;29;20537;-78
2023/01/01 07:03:14;;;;;;;36.30;21.43;;;;;;;0.72;100.00;102191.81;4918289;29;20499;-78
2023/01/01 07:05:39;;;;;;;52.83;31.23;;;;;;;0.68;100.00;102196.44;4935511;29;20028;-78
2023/01/01 07:08:05;;;;;;;37.60;21.83;;;;;;;0.71;100.00;102192.59;4918431;29;20023;-77
2023/01/01 07:10:30;;;;;;;57.30;24.23;;;;;;;0.79;100.00;102193.38;4918313;29;20028;-77
2023/01/01 07:12:56;;;;;;;40.97;23.90;;;;;;;0.85;100.00;102200.72;4935381;29;20115;-78
2023/01/01 07:15:21;;;;;;;68.10;24.30;;;;;;;0.88;100.00;102185.81;4918218;29;20024;-78
2023/01/01 07:17:46;;;;;;;45.30;24.63;;;;;;;1.00;100.00;102184.53;4935099;29;20028;-78
2023/01/01 07:20:12;;;;;;;56.40;23.97;;;;;;;1.02;100.00;102190.66;4935292;29;20035;-78
2023/01/01 07:22:39;;;;;;;48.60;24.80;;;;;;;0.81;100.00;102128.34;4917978;29;20028;-78
2023/01/01 07:25:05;;;;;;;37.50;23.73;;;;;;;1.21;100.00;102179.81;4935177;29;20028;-78
2023/01/01 07:27:31;;;;;;;73.38;26.55;;;;;;;1.30;100.00;102183.31;4935363;29;20039;-78
2023/01/01 07:29:56;;;;;;;73.82;25.00;;;;;;;1.13;100.00;102179.97;4917876;29;20050;-78
2023/01/01 07:32:21;;;;;;;45.40;25.85;;;;;;;1.13;100.00;102179.97;4935134;29;20054;-77
2023/01/01 07:34:47;;;;;;;62.33;26.30;;;;;;;1.10;100.00;102179.63;4934527;29;20044;-77
2023/01/01 07:37:12;;;;;;;51.87;24.67;;;;;;;1.25;100.00;102185.38;4935045;29;20027;-78
2023/01/01 07:39:38;;;;;;;43.13;23.58;;;;;;;1.32;100.00;102186.94;4934792;29;20055;-77
2023/01/01 07:42:03;;;;;;;51.25;26.48;;;;;;;0.84;100.00;102108.31;4934859;29;20550;-77
2023/01/01 07:44:29;;;;;;;42.45;23.20;;;;;;;1.37;100.00;102179.75;4935196;29;20046;-78
2023/01/01 07:47:05;;;;;;;43.40;24.63;;;;;;;1.38;100.00;102192.63;4934915;29;20482;-78
2023/01/01 07:49:30;;;;;;;45.95;23.55;;;;;;;1.40;100.00;102195.34;4917649;29;20070;-77
2023/01/01 07:51:57;;;;;;;75.55;25.90;;;;;;;1.49;100.00;102200.47;4935016;29;20055;-77
2023/01/01 07:54:22;;;;;;;86.20;30.80;;;;;;;1.52;100.00;102190.56;4917631;29;20413;-78
2023/01/01 07:56:48;;;;;;;74.57;26.70;;;;;;;1.33;100.00;102195.47;4934284;29;20035;-77
2023/01/01 07:59:13;;;;;;;77.30;25.70;;;;;;;1.25;100.00;102199.78;4917170;29;20036;-77
2023/01/01 08:01:38;;;;;;;63.72;26.70;;;;;;;1.34;100.00;102202.34;4934630;29;20086;-78
2023/01/01 08:04:04;;;;;;;62.47;27.00;;;;;;;1.46;100.00;102198.50;4942645;29;20398;-78
2023/01/01 08:06:30;;;;;;;42.95;27.63;;;;;;;1.44;100.00;102195.78;4953616;29;20031;-77
2023/01/01 08:08:55;;;;;;;53.20;27.37;;;;;;;1.54;100.00;102207.81;4953814;29;20618;-77
2023/01/01 08:11:20;;;;;;;47.83;28.33;;;;;;;1.54;100.00;102206.91;4953690;29;20043;-77
2023/01/01 08:13:46;;;;;;;51.37;27.90;;;;;;;1.61;100.00;102201.72;4936230;29;20054;-78
2023/01/01 08:16:11;;;;;;;50.30;28.70;;;;;;;1.56;100.00;102205.44;4953199;29;20064;-78
2023/01/01 08:18:37;;;;;;;53.63;27.75;;;;;;;1.59;100.00;102218.47;4936086;29;20118;-78
2023/01/01 08:21:03;;;;;;;44.63;28.38;;;;;;;1.57;100.00;102210.69;4931581;29;20135;-78
2023/01/01 08:23:29;;;;;;;45.55;29.02;;;;;;;1.53;100.00;102217.84;4915575;29;20040;-77
2023/01/01 08:26:00;;;;;;;55.47;31.90;;;;;;;1.69;100.00;102207.56;4931591;29;20055;-78
2023/01/01 08:28:25;;;;;;;65.30;33.97;;;;;;;1.73;100.00;102208.03;4931541;29;20590;-78
2023/01/01 08:30:51;;;;;;;61.35;35.45;;;;;;;1.71;100.00;102217.16;4931771;29;20059;-78
2023/01/01 08:33:16;;;;;;;65.15;36.28;;;;;;;1.51;100.00;102171.88;4942897;29;20047;-77
2023/01/01 08:35:42;;;;;;;61.25;37.47;;;;;;;1.88;100.00;102223.03;4950434;29;20142;-77
2023/01/01 08:38:10;;;;;;;64.22;37.10;;;;;;;1.91;100.00;102202.97;4950209;29;20039;-77
2023/01/01 08:40:36;;;;;;;66.13;37.90;;;;;;;2.14;100.00;102212.00;4950562;29;20035;-78
2023/01/01 08:43:02;;;;;;;65.50;39.50;;;;;;;2.23;100.00;102218.91;4934297;29;20414;-75
2023/01/01 08:45:27;;;;;;;64.10;37.92;;;;;;;2.07;100.00;102180.81;4949518;28;20035;-76
2023/01/01 08:47:52;;;;;;;65.63;37.65;;;;;;;2.42;100.00;102216.50;4950088;29;20035;-76
2023/01/01 08:50:18;;;;;;;62.22;39.50;;;;;;;2.58;100.00;102210.38;4934206;29;20050;-77
2023/01/01 08:52:43;;;;;;;64.05;39.22;;;;;;;2.67;100.00;102216.34;4950298;29;20043;-76
2023/01/01 08:55:09;;;;;;;67.97;40.00;;;;;;;2.75;100.00;102218.00;4950371;29;20050;-78
2023/01/01 08:57:34;;;;;;;64.22;39.50;;;;;;;2.89;100.00;102205.66;4950159;29;20043;-79
2023/01/01 09:00:00;;;;;;;61.17;38.60;;;;;;;2.94;100.00;102211.22;4952669;28;20031;-78
2023/01/01 09:02:25;;;;;;;65.85;39.80;;;;;;;2.75;100.00;102166.09;4951528;28;20031;-77
2023/01/01 09:04:50;;;;;;;66.38;41.22;;;;;;;2.94;100.00;102194.28;4952825;28;20363;-77
2023/01/01 09:07:16;;;;;;;66.82;39.58;;;;;;;2.98;100.00;102196.34;4951317;29;20031;-77
2023/01/01 09:12:41;;;;;;;;;;;;;;;3.19;100.00;102199.13;5301443;23;20135;-75
2023/01/01 09:15:13;;;;;;;65.10;38.30;;;;;;;3.21;100.00;102197.63;4914221;29;20445;-77
2023/01/01 09:17:39;;;;;;;63.58;39.20;;;;;;;3.25;100.00;102189.50;4897691;29;20499;-77
2023/01/01 09:20:05;;;;;;;67.65;41.67;;;;;;;3.48;100.00;102198.44;4897636;29;20043;-77
2023/01/01 09:22:32;;;;;;;65.28;41.53;;;;;;;3.60;100.00;102194.47;4897369;29;20520;-75
2023/01/01 09:24:58;;;;;;;67.35;42.55;;;;;;;3.31;100.00;102126.25;4914749;29;20032;-75
2023/01/01 09:27:23;;;;;;;65.80;41.22;;;;;;;3.75;100.00;102187.34;4914622;29;20039;-75
2023/01/01 09:29:49;;;;;;;60.88;40.88;;;;;;;3.90;100.00;102175.06;4914684;29;20515;-78
2023/01/01 09:32:14;;;;;;;66.45;40.35;;;;;;;4.01;100.00;102176.03;4914595;29;20115;-77
2023/01/01 09:34:39;;;;;;;64.50;42.38;;;;;;;4.24;100.00;102175.56;4914139;29;20032;-77
2023/01/01 09:37:05;;;;;;;65.13;41.70;;;;;;;4.47;100.00;102174.16;4897305;29;20054;-77
2023/01/01 09:39:30;;;;;;;65.72;42.50;;;;;;;4.57;100.00;102163.09;4897598;29;20040;-76
2023/01/01 09:42:22;;;;;;;64.68;41.47;;;;;;;4.73;100.00;102162.78;4913329;29;20048;-80
2023/01/01 09:45:00;;;;;;;64.80;42.08;;;;;;;4.94;100.00;102159.53;4837643;29;20042;-78
2023/01/01 09:47:32;;;;;;;65.32;42.72;;;;;;;5.09;100.00;102159.06;4837493;29;20062;-77
2023/01/01 09:50:05;;;;;;;71.00;44.33;;;;;;;5.21;100.00;102155.00;4837817;29;20090;-78
2023/01/01 09:52:48;;;;;;;68.50;43.65;;;;;;;5.14;100.00;102101.47;4837534;29;20041;-79
2023/01/01 09:55:45;;;;;;;64.68;43.10;;;;;;;5.58;100.00;102142.78;4837512;29;20038;-78
2023/01/01 09:58:11;;;;;;;64.00;42.53;;;;;;;5.70;100.00;102135.19;4824710;29;20549;-76
2023/01/01 10:00:40;;;;;;;60.72;37.25;;;;;;;5.76;100.00;102135.72;4840924;29;20026;-78
2023/01/01 10:03:19;;;;;;;58.60;38.95;;;;;;;5.75;100.00;102133.03;4840719;29;20556;-77
2023/01/01 10:06:03;;;;;;;59.08;40.17;;;;;;;5.81;100.00;102136.97;4840757;29;20473;-78
2023/01/01 10:09:05;;;;;;;60.03;39.22;;;;;;;5.89;100.00;102129.03;4825380;29;20563;-77
2023/01/01 10:11:57;;;;;;;56.38;39.50;;;;;;;6.11;100.00;102134.31;4826516;29;20123;-76
2023/01/01 10:14:31;;;;;;;58.05;38.25;;;;;;;6.09;100.00;102128.16;4822192;29;20041;-80
2023/01/01 10:17:01;;;;;;;57.10;38.03;;;;;;;6.14;100.00;102117.50;4807231;29;20046;-77
2023/01/01 10:19:35;;;;;;;59.38;40.05;;;;;;;6.21;100.00;102113.75;4815977;29;20053;-77
2023/01/01 10:22:48;;;;;;;57.78;41.88;;;;;;;6.44;100.00;102109.59;4848171;29;20032;-77
2023/01/01 10:25:23;;;;;;;55.17;38.00;;;;;;;6.48;100.00;102102.25;4785967;29;20080;-77
2023/01/01 10:28:03;;;;;;;58.47;37.53;;;;;;;6.62;100.00;102112.72;4786063;29;20032;-78
2023/01/01 10:30:29;;;;;;;56.67;40.17;;;;;;;6.74;100.00;102113.72;4792111;29;20043;-77
2023/01/01 10:32:56;;;;;;;55.30;39.15;;;;;;;6.88;100.00;102107.09;4785457;29;20104;-77
2023/01/01 10:35:33;;;;;;;57.15;40.45;;;;;;;7.07;100.00;102098.25;4785488;29;20066;-78
2023/01/01 10:38:00;;;;;;;55.28;39.13;;;;;;;6.97;100.00;102073.53;4785474;29;20564;-77
2023/01/01 10:40:28;;;;;;;56.22;39.80;;;;;;;7.35;100.00;102102.94;4785536;29;20525;-77
2023/01/01 10:42:56;;;;;;;52.15;38.33;;;;;;;7.56;100.00;102101.09;4785641;29;20135;-77
2023/01/01 10:46:00;;;;;;;54.38;39.67;;;;;;;7.68;100.00;102096.00;4785389;29;20043;-77
2023/01/01 10:48:29;;;;;;;52.63;38.13;;;;;;;7.87;100.00;102078.56;4785217;29;20046;-79
2023/01/01 10:51:23;;;;;;;50.83;36.55;;;;;;;7.98;100.00;102076.78;4785382;29;20040;-75
2023/01/01 10:53:50;;;;;;;57.15;39.45;;;;;;;8.04;100.00;102069.53;4749555;30;20098;-78
2023/01/01 10:56:18;;;;;;;53.88;39.50;;;;;;;8.21;100.00;102078.47;4792192;29;20059;-77
2023/01/01 10:58:54;;;;;;;53.75;39.28;;;;;;;8.38;100.00;102077.09;4820875;29;20042;-77
2023/01/01 11:01:23;;;;;;;53.50;38.42;;;;;;;8.17;100.00;102006.97;4820875;29;20045;-78
2023/01/01 11:03:56;;;;;;;48.33;37.10;;;;;;;8.60;100.00;102070.94;4820716;29;20598;-78
2023/01/01 11:06:25;;;;;;;49.63;36.13;;;;;;;8.73;100.00;102073.63;4839449;29;20045;-77
2023/01/01 11:08:54;;;;;;;49.50;38.15;;;;;;;8.40;100.00;102015.47;4838354;29;20030;-79
2023/01/01 11:11:28;;;;;;;51.93;39.80;;;;;;;8.74;100.00;102074.50;4839035;29;20597;-74
2023/01/01 11:13:57;;;;;;;46.80;36.55;;;;;;;8.73;100.00;102063.31;4839070;29;20750;-76
2023/01/01 11:16:24;;;;;;;52.58;38.00;;;;;;;8.73;100.00;102057.25;4839220;29;20033;-74
2023/01/01 11:18:50;;;;;;;50.45;38.80;;;;;;;8.81;100.00;102070.66;4826645;29;20042;-75
2023/01/01 11:21:23;;;;;;;50.58;38.13;;;;;;;8.87;100.00;102066.84;4823363;29;20039;-75
2023/01/01 11:24:07;;;;;;;49.10;36.50;;;;;;;8.80;100.00;102049.16;4821572;29;20133;-79
2023/01/01 11:26:32;;;;;;;48.75;36.95;;;;;;;8.92;100.00;102063.69;4818208;29;20042;-77
2023/01/01 11:28:59;;;;;;;48.10;38.33;;;;;;;9.06;100.00;102055.25;4819861;29;20495;-76